sensor_id;sensor_type;location;lat;lon;timestamp;P1;durP1;ratioP1;P2;durP2;ratioP2
29788;SDS011;64899;42.660;23.268;2023-04-24T00:00:00;16.40;;;10.63;;
29788;SDS011;64899;42.660;23.268;2023-04-24T00:02:26;15.80;;;10.13;;
29788;SDS011;64899;42.660;23.268;2023-04-24T00:04:51;14.80;;;9.82;;
29788;SDS011;64899;42.660;23.268;2023-04-24T00:07:17;14.25;;;9.43;;
29788;SDS011;64899;42.660;23.268;2023-04-24T00:09:42;12.40;;;9.88;;
29788;SDS011;64899;42.660;23.268;2023-04-24T00:12:08;18.83;;;9.07;;
29788;SDS011;64899;42.660;23.268;2023-04-24T00:14:34;17.15;;;9.70;;
29788;SDS011;64899;42.660;23.268;2023-04-24T00:17:00;14.25;;;9.43;;
29788;SDS011;64899;42.660;23.268;2023-04-24T00:19:27;15.90;;;9.45;;
29788;SDS011;64899;42.660;23.268;2023-04-24T00:21:53;15.43;;;9.52;;
29788;SDS011;64899;42.660;23.268;2023-04-24T00:24:19;13.68;;;9.43;;
29788;SDS011;64899;42.660;23.268;2023-04-24T00:26:45;15.95;;;9.85;;
29788;SDS011;64899;42.660;23.268;2023-04-24T00:29:10;17.95;;;10.20;;
29788;SDS011;64899;42.660;23.268;2023-04-24T00:31:36;15.00;;;10.35;;
29788;SDS011;64899;42.660;23.268;2023-04-24T00:34:02;16.45;;;10.10;;
29788;SDS011;64899;42.660;23.268;2023-04-24T00:36:27;13.32;;;9.23;;
29788;SDS011;64899;42.660;23.268;2023-04-24T00:38:53;15.65;;;10.05;;
29788;SDS011;64899;42.660;23.268;2023-04-24T00:41:19;15.50;;;9.52;;
29788;SDS011;64899;42.660;23.268;2023-04-24T00:43:45;18.65;;;9.85;;
29788;SDS011;64899;42.660;23.268;2023-04-24T00:46:11;14.15;;;9.55;;
29788;SDS011;64899;42.660;23.268;2023-04-24T00:48:38;16.98;;;10.02;;
29788;SDS011;64899;42.660;23.268;2023-04-24T00:51:04;15.63;;;10.60;;
29788;SDS011;64899;42.660;23.268;2023-04-24T00:53:29;18.55;;;11.70;;
29788;SDS011;64899;42.660;23.268;2023-04-24T00:55:55;17.65;;;10.50;;
29788;SDS011;64899;42.660;23.268;2023-04-24T00:58:21;15.07;;;9.75;;
29788;SDS011;64899;42.660;23.268;2023-04-24T01:00:46;14.50;;;9.82;;
29788;SDS011;64899;42.660;23.268;2023-04-24T01:03:13;15.52;;;10.10;;
29788;SDS011;64899;42.660;23.268;2023-04-24T01:05:39;17.08;;;10.25;;
29788;SDS011;64899;42.660;23.268;2023-04-24T01:08:04;14.70;;;9.68;;
29788;SDS011;64899;42.660;23.268;2023-04-24T01:10:31;16.50;;;11.25;;
29788;SDS011;64899;42.660;23.268;2023-04-24T01:12:58;15.07;;;11.23;;
29788;SDS011;64899;42.660;23.268;2023-04-24T01:15:24;16.52;;;10.45;;
29788;SDS011;64899;42.660;23.268;2023-04-24T01:17:50;18.27;;;9.98;;
29788;SDS011;64899;42.660;23.268;2023-04-24T01:20:15;19.25;;;10.82;;
29788;SDS011;64899;42.660;23.268;2023-04-24T01:22:42;14.98;;;11.68;;
29788;SDS011;64899;42.660;23.268;2023-04-24T01:25:07;16.85;;;10.60;;
29788;SDS011;64899;42.660;23.268;2023-04-24T01:27:33;13.73;;;10.38;;
29788;SDS011;64899;42.660;23.268;2023-04-24T01:29:58;19.42;;;10.80;;
29788;SDS011;64899;42.660;23.268;2023-04-24T01:32:24;17.45;;;10.10;;
29788;SDS011;64899;42.660;23.268;2023-04-24T01:34:50;15.60;;;9.60;;
29788;SDS011;64899;42.660;23.268;2023-04-24T01:37:16;16.35;;;10.10;;
29788;SDS011;64899;42.660;23.268;2023-04-24T01:39:42;17.75;;;9.18;;
29788;SDS011;64899;42.660;23.268;2023-04-24T01:42:08;17.00;;;9.68;;
29788;SDS011;64899;42.660;23.268;2023-04-24T01:44:34;15.75;;;10.32;;
29788;SDS011;64899;42.660;23.268;2023-04-24T01:47:00;16.58;;;10.60;;
29788;SDS011;64899;42.660;23.268;2023-04-24T01:49:26;16.85;;;10.77;;
29788;SDS011;64899;42.660;23.268;2023-04-24T01:51:51;16.20;;;10.80;;
29788;SDS011;64899;42.660;23.268;2023-04-24T01:54:17;17.60;;;11.10;;
29788;SDS011;64899;42.660;23.268;2023-04-24T01:56:43;17.55;;;10.77;;
29788;SDS011;64899;42.660;23.268;2023-04-24T01:59:11;13.90;;;10.93;;
29788;SDS011;64899;42.660;23.268;2023-04-24T02:01:37;16.10;;;11.75;;
29788;SDS011;64899;42.660;23.268;2023-04-24T02:04:03;16.40;;;12.95;;
29788;SDS011;64899;42.660;23.268;2023-04-24T02:06:30;17.98;;;13.02;;
29788;SDS011;64899;42.660;23.268;2023-04-24T02:08:59;17.85;;;12.55;;
29788;SDS011;64899;42.660;23.268;2023-04-24T02:11:25;18.67;;;12.32;;
29788;SDS011;64899;42.660;23.268;2023-04-24T02:13:50;20.52;;;12.80;;
29788;SDS011;64899;42.660;23.268;2023-04-24T02:16:16;17.95;;;11.98;;
29788;SDS011;64899;42.660;23.268;2023-04-24T02:18:42;18.38;;;12.95;;
29788;SDS011;64899;42.660;23.268;2023-04-24T02:21:07;15.85;;;12.45;;
29788;SDS011;64899;42.660;23.268;2023-04-24T02:23:33;18.65;;;12.00;;
29788;SDS011;64899;42.660;23.268;2023-04-24T02:25:58;20.33;;;11.68;;
29788;SDS011;64899;42.660;23.268;2023-04-24T02:28:24;21.58;;;12.23;;
29788;SDS011;64899;42.660;23.268;2023-04-24T02:30:49;18.65;;;11.93;;
29788;SDS011;64899;42.660;23.268;2023-04-24T02:33:16;16.65;;;11.48;;
29788;SDS011;64899;42.660;23.268;2023-04-24T02:35:41;19.00;;;11.63;;
29788;SDS011;64899;42.660;23.268;2023-04-24T02:38:06;16.83;;;10.98;;
29788;SDS011;64899;42.660;23.268;2023-04-24T02:40:32;15.02;;;11.35;;
29788;SDS011;64899;42.660;23.268;2023-04-24T02:42:57;17.05;;;11.25;;
29788;SDS011;64899;42.660;23.268;2023-04-24T02:45:23;17.30;;;12.13;;
29788;SDS011;64899;42.660;23.268;2023-04-24T02:47:48;13.10;;;10.57;;
29788;SDS011;64899;42.660;23.268;2023-04-24T02:50:13;14.45;;;11.02;;
29788;SDS011;64899;42.660;23.268;2023-04-24T02:52:39;16.73;;;11.38;;
29788;SDS011;64899;42.660;23.268;2023-04-24T02:55:04;16.02;;;11.38;;
29788;SDS011;64899;42.660;23.268;2023-04-24T02:57:30;20.92;;;13.20;;
29788;SDS011;64899;42.660;23.268;2023-04-24T02:59:55;20.23;;;12.82;;
29788;SDS011;64899;42.660;23.268;2023-04-24T03:02:21;16.92;;;12.82;;
29788;SDS011;64899;42.660;23.268;2023-04-24T03:04:46;17.65;;;12.00;;
29788;SDS011;64899;42.660;23.268;2023-04-24T03:07:13;19.27;;;12.82;;
29788;SDS011;64899;42.660;23.268;2023-04-24T03:09:39;15.93;;;12.18;;
29788;SDS011;64899;42.660;23.268;2023-04-24T03:12:05;16.17;;;12.60;;
29788;SDS011;64899;42.660;23.268;2023-04-24T03:14:30;21.38;;;14.13;;
29788;SDS011;64899;42.660;23.268;2023-04-24T03:16:56;18.30;;;11.88;;
29788;SDS011;64899;42.660;23.268;2023-04-24T03:19:21;19.65;;;12.10;;
29788;SDS011;64899;42.660;23.268;2023-04-24T03:21:47;18.42;;;12.57;;
29788;SDS011;64899;42.660;23.268;2023-04-24T03:24:13;17.67;;;11.38;;
29788;SDS011;64899;42.660;23.268;2023-04-24T03:26:38;20.48;;;12.25;;
29788;SDS011;64899;42.660;23.268;2023-04-24T03:29:03;18.52;;;11.93;;
29788;SDS011;64899;42.660;23.268;2023-04-24T03:31:29;17.92;;;11.55;;
29788;SDS011;64899;42.660;23.268;2023-04-24T03:33:54;20.02;;;11.27;;
29788;SDS011;64899;42.660;23.268;2023-04-24T03:36:20;17.42;;;11.50;;
29788;SDS011;64899;42.660;23.268;2023-04-24T03:38:45;15.23;;;11.10;;
29788;SDS011;64899;42.660;23.268;2023-04-24T03:41:11;13.82;;;10.43;;
29788;SDS011;64899;42.660;23.268;2023-04-24T03:43:36;12.95;;;10.30;;
29788;SDS011;64899;42.660;23.268;2023-04-24T03:46:02;17.27;;;10.68;;
29788;SDS011;64899;42.660;23.268;2023-04-24T03:48:28;15.25;;;10.80;;
29788;SDS011;64899;42.660;23.268;2023-04-24T03:50:53;15.20;;;11.02;;
29788;SDS011;64899;42.660;23.268;2023-04-24T03:53:18;16.02;;;10.70;;
29788;SDS011;64899;42.660;23.268;2023-04-24T03:55:44;15.32;;;10.77;;
29788;SDS011;64899;42.660;23.268;2023-04-24T03:58:10;15.32;;;10.60;;
29788;SDS011;64899;42.660;23.268;2023-04-24T04:00:36;20.67;;;12.05;;
29788;SDS011;64899;42.660;23.268;2023-04-24T04:03:02;13.55;;;9.70;;
29788;SDS011;64899;42.660;23.268;2023-04-24T04:05:28;16.73;;;10.43;;
29788;SDS011;64899;42.660;23.268;2023-04-24T04:07:54;14.63;;;11.25;;
29788;SDS011;64899;42.660;23.268;2023-04-24T04:10:20;15.63;;;9.95;;
29788;SDS011;64899;42.660;23.268;2023-04-24T04:12:46;14.77;;;9.93;;
29788;SDS011;64899;42.660;23.268;2023-04-24T04:15:11;19.42;;;10.75;;
29788;SDS011;64899;42.660;23.268;2023-04-24T04:17:37;18.90;;;10.93;;
29788;SDS011;64899;42.660;23.268;2023-04-24T04:20:03;16.92;;;10.00;;
29788;SDS011;64899;42.660;23.268;2023-04-24T04:22:33;18.77;;;10.00;;
29788;SDS011;64899;42.660;23.268;2023-04-24T04:24:59;16.67;;;10.50;;
29788;SDS011;64899;42.660;23.268;2023-04-24T04:27:24;17.35;;;9.10;;
29788;SDS011;64899;42.660;23.268;2023-04-24T04:29:50;13.90;;;8.38;;
29788;SDS011;64899;42.660;23.268;2023-04-24T04:32:15;15.65;;;8.70;;
29788;SDS011;64899;42.660;23.268;2023-04-24T04:34:41;14.05;;;8.10;;
29788;SDS011;64899;42.660;23.268;2023-04-24T04:37:07;15.25;;;8.68;;
29788;SDS011;64899;42.660;23.268;2023-04-24T04:39:32;16.40;;;8.80;;
29788;SDS011;64899;42.660;23.268;2023-04-24T04:41:57;14.73;;;9.23;;
29788;SDS011;64899;42.660;23.268;2023-04-24T04:44:23;18.05;;;8.90;;
29788;SDS011;64899;42.660;23.268;2023-04-24T04:46:49;28.00;;;16.40;;
29788;SDS011;64899;42.660;23.268;2023-04-24T04:49:15;21.45;;;12.75;;
29788;SDS011;64899;42.660;23.268;2023-04-24T04:51:41;18.67;;;10.32;;
29788;SDS011;64899;42.660;23.268;2023-04-24T04:54:07;17.13;;;10.43;;
29788;SDS011;64899;42.660;23.268;2023-04-24T04:56:32;17.48;;;9.65;;
29788;SDS011;64899;42.660;23.268;2023-04-24T04:58:58;20.88;;;9.88;;
29788;SDS011;64899;42.660;23.268;2023-04-24T05:01:24;16.33;;;9.32;;
29788;SDS011;64899;42.660;23.268;2023-04-24T05:03:50;18.27;;;9.48;;
29788;SDS011;64899;42.660;23.268;2023-04-24T05:06:15;19.27;;;10.52;;
29788;SDS011;64899;42.660;23.268;2023-04-24T05:08:41;14.00;;;9.65;;
29788;SDS011;64899;42.660;23.268;2023-04-24T05:11:07;16.77;;;9.40;;
29788;SDS011;64899;42.660;23.268;2023-04-24T05:13:33;17.08;;;10.40;;
29788;SDS011;64899;42.660;23.268;2023-04-24T05:15:58;18.45;;;10.65;;
29788;SDS011;64899;42.660;23.268;2023-04-24T05:18:24;18.02;;;10.55;;
29788;SDS011;64899;42.660;23.268;2023-04-24T05:20:49;17.38;;;10.13;;
29788;SDS011;64899;42.660;23.268;2023-04-24T05:23:14;15.48;;;9.45;;
29788;SDS011;64899;42.660;23.268;2023-04-24T05:25:40;21.30;;;10.02;;
29788;SDS011;64899;42.660;23.268;2023-04-24T05:28:06;12.27;;;8.40;;
29788;SDS011;64899;42.660;23.268;2023-04-24T05:30:32;15.15;;;7.20;;
29788;SDS011;64899;42.660;23.268;2023-04-24T05:32:57;9.40;;;6.00;;
29788;SDS011;64899;42.660;23.268;2023-04-24T05:35:22;7.93;;;6.28;;
29788;SDS011;64899;42.660;23.268;2023-04-24T05:37:48;9.43;;;5.93;;
29788;SDS011;64899;42.660;23.268;2023-04-24T05:40:13;10.55;;;6.20;;
29788;SDS011;64899;42.660;23.268;2023-04-24T05:42:39;15.15;;;6.47;;
29788;SDS011;64899;42.660;23.268;2023-04-24T05:45:04;10.93;;;5.70;;
29788;SDS011;64899;42.660;23.268;2023-04-24T05:47:30;9.27;;;5.55;;
29788;SDS011;64899;42.660;23.268;2023-04-24T05:49:56;10.70;;;6.03;;
29788;SDS011;64899;42.660;23.268;2023-04-24T05:52:21;8.95;;;6.35;;
29788;SDS011;64899;42.660;23.268;2023-04-24T05:54:47;11.90;;;6.95;;
29788;SDS011;64899;42.660;23.268;2023-04-24T05:57:12;10.10;;;6.88;;
29788;SDS011;64899;42.660;23.268;2023-04-24T05:59:38;11.27;;;6.68;;
29788;SDS011;64899;42.660;23.268;2023-04-24T06:02:03;12.63;;;7.20;;
29788;SDS011;64899;42.660;23.268;2023-04-24T06:04:29;10.85;;;6.65;;
29788;SDS011;64899;42.660;23.268;2023-04-24T06:06:54;11.27;;;6.80;;
29788;SDS011;64899;42.660;23.268;2023-04-24T06:09:24;10.95;;;7.80;;
29788;SDS011;64899;42.660;23.268;2023-04-24T06:11:50;13.02;;;7.60;;
29788;SDS011;64899;42.660;23.268;2023-04-24T06:14:18;12.05;;;8.20;;
29788;SDS011;64899;42.660;23.268;2023-04-24T06:16:43;13.38;;;8.05;;
29788;SDS011;64899;42.660;23.268;2023-04-24T06:19:09;13.93;;;7.93;;
29788;SDS011;64899;42.660;23.268;2023-04-24T06:21:34;15.68;;;7.70;;
29788;SDS011;64899;42.660;23.268;2023-04-24T06:24:00;15.00;;;8.23;;
29788;SDS011;64899;42.660;23.268;2023-04-24T06:26:25;13.93;;;7.97;;
29788;SDS011;64899;42.660;23.268;2023-04-24T06:28:51;12.68;;;7.68;;
29788;SDS011;64899;42.660;23.268;2023-04-24T06:31:19;15.27;;;8.45;;
29788;SDS011;64899;42.660;23.268;2023-04-24T06:33:45;13.25;;;8.07;;
29788;SDS011;64899;42.660;23.268;2023-04-24T06:36:12;12.43;;;7.93;;
29788;SDS011;64899;42.660;23.268;2023-04-24T06:38:37;13.65;;;8.23;;
29788;SDS011;64899;42.660;23.268;2023-04-24T06:41:03;11.68;;;7.68;;
29788;SDS011;64899;42.660;23.268;2023-04-24T06:43:30;14.15;;;8.52;;
29788;SDS011;64899;42.660;23.268;2023-04-24T06:45:56;13.25;;;8.48;;
29788;SDS011;64899;42.660;23.268;2023-04-24T06:48:23;16.38;;;8.55;;
29788;SDS011;64899;42.660;23.268;2023-04-24T06:50:49;10.70;;;8.07;;
29788;SDS011;64899;42.660;23.268;2023-04-24T06:53:14;10.30;;;7.88;;
29788;SDS011;64899;42.660;23.268;2023-04-24T06:55:40;15.75;;;8.55;;
29788;SDS011;64899;42.660;23.268;2023-04-24T06:58:05;14.00;;;9.00;;
29788;SDS011;64899;42.660;23.268;2023-04-24T07:00:31;12.38;;;7.90;;
29788;SDS011;64899;42.660;23.268;2023-04-24T07:02:56;13.82;;;9.43;;
29788;SDS011;64899;42.660;23.268;2023-04-24T07:05:22;11.63;;;8.20;;
29788;SDS011;64899;42.660;23.268;2023-04-24T07:07:48;15.75;;;8.15;;
29788;SDS011;64899;42.660;23.268;2023-04-24T07:10:14;15.07;;;8.90;;
29788;SDS011;64899;42.660;23.268;2023-04-24T07:12:40;14.55;;;8.65;;
29788;SDS011;64899;42.660;23.268;2023-04-24T07:15:06;14.38;;;8.00;;
29788;SDS011;64899;42.660;23.268;2023-04-24T07:17:32;15.18;;;8.73;;
29788;SDS011;64899;42.660;23.268;2023-04-24T07:19:58;11.77;;;8.32;;
29788;SDS011;64899;42.660;23.268;2023-04-24T07:22:24;14.00;;;8.20;;
29788;SDS011;64899;42.660;23.268;2023-04-24T07:24:49;14.90;;;8.55;;
29788;SDS011;64899;42.660;23.268;2023-04-24T07:27:15;14.60;;;8.68;;
29788;SDS011;64899;42.660;23.268;2023-04-24T07:29:40;11.90;;;7.28;;
29788;SDS011;64899;42.660;23.268;2023-04-24T07:32:06;12.73;;;8.05;;
29788;SDS011;64899;42.660;23.268;2023-04-24T07:34:32;16.75;;;7.00;;
29788;SDS011;64899;42.660;23.268;2023-04-24T07:36:58;13.48;;;6.90;;
29788;SDS011;64899;42.660;23.268;2023-04-24T07:39:23;11.85;;;6.82;;
29788;SDS011;64899;42.660;23.268;2023-04-24T07:41:49;10.57;;;6.40;;
29788;SDS011;64899;42.660;23.268;2023-04-24T07:44:14;11.77;;;7.32;;
29788;SDS011;64899;42.660;23.268;2023-04-24T07:46:40;12.82;;;7.60;;
29788;SDS011;64899;42.660;23.268;2023-04-24T07:49:05;10.50;;;6.85;;
29788;SDS011;64899;42.660;23.268;2023-04-24T07:51:31;13.63;;;7.22;;
29788;SDS011;64899;42.660;23.268;2023-04-24T07:53:58;8.10;;;6.43;;
29788;SDS011;64899;42.660;23.268;2023-04-24T07:56:24;11.82;;;6.97;;
29788;SDS011;64899;42.660;23.268;2023-04-24T07:58:50;11.57;;;7.47;;
29788;SDS011;64899;42.660;23.268;2023-04-24T08:01:15;10.50;;;7.10;;
29788;SDS011;64899;42.660;23.268;2023-04-24T08:03:40;11.40;;;7.93;;
29788;SDS011;64899;42.660;23.268;2023-04-24T08:06:06;9.90;;;7.03;;
29788;SDS011;64899;42.660;23.268;2023-04-24T08:08:31;10.20;;;7.10;;
29788;SDS011;64899;42.660;23.268;2023-04-24T08:10:57;11.38;;;7.13;;
29788;SDS011;64899;42.660;23.268;2023-04-24T08:13:23;13.77;;;6.53;;
29788;SDS011;64899;42.660;23.268;2023-04-24T08:15:48;11.50;;;7.18;;
29788;SDS011;64899;42.660;23.268;2023-04-24T08:18:14;10.30;;;6.53;;
29788;SDS011;64899;42.660;23.268;2023-04-24T08:20:40;11.38;;;7.43;;
29788;SDS011;64899;42.660;23.268;2023-04-24T08:23:06;13.07;;;6.80;;
29788;SDS011;64899;42.660;23.268;2023-04-24T08:25:31;10.18;;;6.93;;
29788;SDS011;64899;42.660;23.268;2023-04-24T08:27:57;10.90;;;6.72;;
29788;SDS011;64899;42.660;23.268;2023-04-24T08:30:22;12.98;;;6.88;;
29788;SDS011;64899;42.660;23.268;2023-04-24T08:32:48;10.07;;;6.72;;
29788;SDS011;64899;42.660;23.268;2023-04-24T08:35:13;11.23;;;6.90;;
29788;SDS011;64899;42.660;23.268;2023-04-24T08:37:39;12.45;;;6.43;;
29788;SDS011;64899;42.660;23.268;2023-04-24T08:40:06;12.13;;;6.22;;
29788;SDS011;64899;42.660;23.268;2023-04-24T08:45:03;8.27;;;6.65;;
29788;SDS011;64899;42.660;23.268;2023-04-24T08:47:29;15.77;;;8.18;;
29788;SDS011;64899;42.660;23.268;2023-04-24T08:49:55;12.20;;;6.70;;
29788;SDS011;64899;42.660;23.268;2023-04-24T08:52:20;10.63;;;6.82;;
29788;SDS011;64899;42.660;23.268;2023-04-24T08:54:46;16.45;;;6.75;;
29788;SDS011;64899;42.660;23.268;2023-04-24T08:57:13;14.38;;;7.15;;
29788;SDS011;64899;42.660;23.268;2023-04-24T08:59:39;12.65;;;6.90;;
29788;SDS011;64899;42.660;23.268;2023-04-24T09:02:05;9.55;;;6.18;;
29788;SDS011;64899;42.660;23.268;2023-04-24T09:04:31;11.55;;;6.45;;
29788;SDS011;64899;42.660;23.268;2023-04-24T09:06:58;10.60;;;7.00;;
29788;SDS011;64899;42.660;23.268;2023-04-24T09:09:24;10.98;;;6.63;;
29788;SDS011;64899;42.660;23.268;2023-04-24T09:11:50;13.85;;;7.18;;
29788;SDS011;64899;42.660;23.268;2023-04-24T09:14:16;14.02;;;7.07;;
29788;SDS011;64899;42.660;23.268;2023-04-24T09:16:42;12.88;;;6.78;;
29788;SDS011;64899;42.660;23.268;2023-04-24T09:19:07;12.35;;;6.43;;
29788;SDS011;64899;42.660;23.268;2023-04-24T09:21:33;9.82;;;6.28;;
29788;SDS011;64899;42.660;23.268;2023-04-24T09:24:04;10.55;;;6.32;;
29788;SDS011;64899;42.660;23.268;2023-04-24T09:26:30;9.02;;;5.63;;
29788;SDS011;64899;42.660;23.268;2023-04-24T09:28:57;9.95;;;5.95;;
29788;SDS011;64899;42.660;23.268;2023-04-24T09:31:23;12.05;;;6.10;;
29788;SDS011;64899;42.660;23.268;2023-04-24T09:39:13;11.00;;;5.63;;
29788;SDS011;64899;42.660;23.268;2023-04-24T09:44:22;11.50;;;5.95;;
29788;SDS011;64899;42.660;23.268;2023-04-24T09:46:53;9.32;;;5.65;;
29788;SDS011;64899;42.660;23.268;2023-04-24T09:49:23;11.93;;;5.93;;
29788;SDS011;64899;42.660;23.268;2023-04-24T09:52:10;7.72;;;5.18;;
29788;SDS011;64899;42.660;23.268;2023-04-24T09:54:36;10.13;;;5.53;;
29788;SDS011;64899;42.660;23.268;2023-04-24T09:57:02;7.75;;;5.18;;
29788;SDS011;64899;42.660;23.268;2023-04-24T09:59:28;10.27;;;5.63;;
29788;SDS011;64899;42.660;23.268;2023-04-24T10:01:54;8.48;;;5.10;;
29788;SDS011;64899;42.660;23.268;2023-04-24T10:04:23;15.38;;;5.57;;
29788;SDS011;64899;42.660;23.268;2023-04-24T10:06:51;11.65;;;5.05;;
29788;SDS011;64899;42.660;23.268;2023-04-24T10:09:18;8.60;;;4.57;;
29788;SDS011;64899;42.660;23.268;2023-04-24T10:11:45;9.32;;;4.63;;
29788;SDS011;64899;42.660;23.268;2023-04-24T10:14:15;9.63;;;4.60;;
29788;SDS011;64899;42.660;23.268;2023-04-24T10:16:46;5.47;;;4.40;;
29788;SDS011;64899;42.660;23.268;2023-04-24T10:19:12;10.93;;;4.50;;
29788;SDS011;64899;42.660;23.268;2023-04-24T10:21:38;7.57;;;4.60;;
29788;SDS011;64899;42.660;23.268;2023-04-24T10:24:07;7.53;;;4.50;;
29788;SDS011;64899;42.660;23.268;2023-04-24T10:26:34;7.13;;;4.22;;
29788;SDS011;64899;42.660;23.268;2023-04-24T10:29:00;11.93;;;4.60;;
29788;SDS011;64899;42.660;23.268;2023-04-24T10:31:26;6.75;;;4.32;;
29788;SDS011;64899;42.660;23.268;2023-04-24T10:33:52;11.20;;;4.38;;
29788;SDS011;64899;42.660;23.268;2023-04-24T10:36:18;6.80;;;3.75;;
29788;SDS011;64899;42.660;23.268;2023-04-24T10:38:47;10.23;;;3.85;;
29788;SDS011;64899;42.660;23.268;2023-04-24T10:41:14;5.25;;;3.35;;
29788;SDS011;64899;42.660;23.268;2023-04-24T10:43:44;5.57;;;3.03;;
29788;SDS011;64899;42.660;23.268;2023-04-24T10:46:10;3.28;;;2.92;;
29788;SDS011;64899;42.660;23.268;2023-04-24T10:48:42;4.53;;;2.45;;
29788;SDS011;64899;42.660;23.268;2023-04-24T10:51:12;4.07;;;2.80;;
29788;SDS011;64899;42.660;23.268;2023-04-24T10:53:39;4.97;;;2.95;;
29788;SDS011;64899;42.660;23.268;2023-04-24T11:01:09;9.45;;;4.18;;
29788;SDS011;64899;42.660;23.268;2023-04-24T11:03:56;8.32;;;3.28;;
29788;SDS011;64899;42.660;23.268;2023-04-24T11:06:35;7.53;;;3.97;;
29788;SDS011;64899;42.660;23.268;2023-04-24T11:09:02;5.72;;;3.50;;
29788;SDS011;64899;42.660;23.268;2023-04-24T11:11:32;3.78;;;2.90;;
29788;SDS011;64899;42.660;23.268;2023-04-24T11:16:27;6.13;;;3.15;;
29788;SDS011;64899;42.660;23.268;2023-04-24T11:19:23;6.38;;;3.20;;
29788;SDS011;64899;42.660;23.268;2023-04-24T11:21:59;5.72;;;3.28;;
29788;SDS011;64899;42.660;23.268;2023-04-24T11:27:13;4.57;;;3.20;;
29788;SDS011;64899;42.660;23.268;2023-04-24T11:32:24;3.28;;;2.53;;
29788;SDS011;64899;42.660;23.268;2023-04-24T11:34:50;4.38;;;2.75;;
29788;SDS011;64899;42.660;23.268;2023-04-24T11:37:17;4.30;;;2.97;;
29788;SDS011;64899;42.660;23.268;2023-04-24T11:39:43;4.22;;;3.65;;
29788;SDS011;64899;42.660;23.268;2023-04-24T11:42:09;8.18;;;4.07;;
29788;SDS011;64899;42.660;23.268;2023-04-24T11:44:35;6.45;;;3.42;;
29788;SDS011;64899;42.660;23.268;2023-04-24T11:47:06;6.20;;;4.45;;
29788;SDS011;64899;42.660;23.268;2023-04-24T11:49:33;6.35;;;4.78;;
29788;SDS011;64899;42.660;23.268;2023-04-24T11:52:01;7.25;;;4.57;;
29788;SDS011;64899;42.660;23.268;2023-04-24T11:54:26;5.90;;;3.97;;
29788;SDS011;64899;42.660;23.268;2023-04-24T11:56:52;4.00;;;3.40;;
29788;SDS011;64899;42.660;23.268;2023-04-24T11:59:17;3.42;;;3.13;;
29788;SDS011;64899;42.660;23.268;2023-04-24T12:01:44;8.02;;;3.65;;
29788;SDS011;64899;42.660;23.268;2023-04-24T12:04:13;6.43;;;3.95;;
29788;SDS011;64899;42.660;23.268;2023-04-24T12:06:39;5.10;;;3.50;;
29788;SDS011;64899;42.660;23.268;2023-04-24T12:09:04;5.82;;;4.03;;
29788;SDS011;64899;42.660;23.268;2023-04-24T12:11:30;4.50;;;3.50;;
29788;SDS011;64899;42.660;23.268;2023-04-24T12:13:55;3.20;;;2.72;;
29788;SDS011;64899;42.660;23.268;2023-04-24T12:16:21;3.22;;;2.88;;
29788;SDS011;64899;42.660;23.268;2023-04-24T12:18:47;4.97;;;3.10;;
29788;SDS011;64899;42.660;23.268;2023-04-24T12:21:18;3.72;;;3.00;;
29788;SDS011;64899;42.660;23.268;2023-04-24T12:23:45;7.18;;;2.97;;
29788;SDS011;64899;42.660;23.268;2023-04-24T12:26:12;5.80;;;3.30;;
29788;SDS011;64899;42.660;23.268;2023-04-24T12:28:48;5.97;;;3.08;;
29788;SDS011;64899;42.660;23.268;2023-04-24T12:31:14;3.67;;;2.88;;
29788;SDS011;64899;42.660;23.268;2023-04-24T12:33:41;3.35;;;3.05;;
29788;SDS011;64899;42.660;23.268;2023-04-24T12:36:09;3.85;;;3.05;;
29788;SDS011;64899;42.660;23.268;2023-04-24T12:38:35;3.13;;;2.80;;
29788;SDS011;64899;42.660;23.268;2023-04-24T12:41:06;3.85;;;2.85;;
29788;SDS011;64899;42.660;23.268;2023-04-24T12:43:36;5.07;;;3.05;;
29788;SDS011;64899;42.660;23.268;2023-04-24T12:46:02;3.42;;;2.90;;
29788;SDS011;64899;42.660;23.268;2023-04-24T12:48:28;3.13;;;2.90;;
29788;SDS011;64899;42.660;23.268;2023-04-24T12:50:54;3.55;;;3.20;;
29788;SDS011;64899;42.660;23.268;2023-04-24T12:53:21;6.43;;;3.28;;
29788;SDS011;64899;42.660;23.268;2023-04-24T12:55:47;3.78;;;3.03;;
29788;SDS011;64899;42.660;23.268;2023-04-24T12:58:17;5.60;;;3.22;;
29788;SDS011;64899;42.660;23.268;2023-04-24T13:00:44;5.60;;;3.13;;
29788;SDS011;64899;42.660;23.268;2023-04-24T13:03:10;3.85;;;2.80;;
29788;SDS011;64899;42.660;23.268;2023-04-24T13:05:36;8.43;;;2.90;;
29788;SDS011;64899;42.660;23.268;2023-04-24T13:08:02;4.40;;;3.03;;
29788;SDS011;64899;42.660;23.268;2023-04-24T13:10:27;4.80;;;3.72;;
29788;SDS011;64899;42.660;23.268;2023-04-24T13:12:52;5.93;;;3.13;;
29788;SDS011;64899;42.660;23.268;2023-04-24T13:15:19;2.90;;;2.50;;
29788;SDS011;64899;42.660;23.268;2023-04-24T13:17:45;4.82;;;2.85;;
29788;SDS011;64899;42.660;23.268;2023-04-24T13:20:10;4.70;;;2.33;;
29788;SDS011;64899;42.660;23.268;2023-04-24T13:22:35;2.85;;;2.55;;
29788;SDS011;64899;42.660;23.268;2023-04-24T13:25:01;4.15;;;2.50;;
29788;SDS011;64899;42.660;23.268;2023-04-24T13:27:27;5.00;;;2.40;;
29788;SDS011;64899;42.660;23.268;2023-04-24T13:29:52;4.20;;;3.00;;
29788;SDS011;64899;42.660;23.268;2023-04-24T13:32:17;3.13;;;2.50;;
29788;SDS011;64899;42.660;23.268;2023-04-24T13:34:43;3.13;;;2.60;;
29788;SDS011;64899;42.660;23.268;2023-04-24T13:37:08;4.47;;;2.55;;
29788;SDS011;64899;42.660;23.268;2023-04-24T13:39:34;5.97;;;2.53;;
29788;SDS011;64899;42.660;23.268;2023-04-24T13:42:00;4.07;;;2.50;;
29788;SDS011;64899;42.660;23.268;2023-04-24T13:44:25;5.68;;;2.55;;
29788;SDS011;64899;42.660;23.268;2023-04-24T13:46:52;3.17;;;2.40;;
29788;SDS011;64899;42.660;23.268;2023-04-24T13:49:19;6.38;;;2.50;;
29788;SDS011;64899;42.660;23.268;2023-04-24T13:51:45;2.75;;;2.05;;
29788;SDS011;64899;42.660;23.268;2023-04-24T13:54:10;3.10;;;2.40;;
29788;SDS011;64899;42.660;23.268;2023-04-24T13:56:36;4.40;;;2.70;;
29788;SDS011;64899;42.660;23.268;2023-04-24T13:59:02;2.60;;;2.35;;
29788;SDS011;64899;42.660;23.268;2023-04-24T14:01:27;6.50;;;2.40;;
29788;SDS011;64899;42.660;23.268;2023-04-24T14:03:53;4.82;;;2.35;;
29788;SDS011;64899;42.660;23.268;2023-04-24T14:06:19;3.90;;;2.30;;
29788;SDS011;64899;42.660;23.268;2023-04-24T14:08:45;4.88;;;2.15;;
29788;SDS011;64899;42.660;23.268;2023-04-24T14:11:11;2.78;;;2.13;;
29788;SDS011;64899;42.660;23.268;2023-04-24T14:13:37;3.47;;;2.47;;
29788;SDS011;64899;42.660;23.268;2023-04-24T14:16:03;4.40;;;2.20;;
29788;SDS011;64899;42.660;23.268;2023-04-24T14:18:29;2.58;;;2.20;;
29788;SDS011;64899;42.660;23.268;2023-04-24T14:20:54;3.40;;;2.17;;
29788;SDS011;64899;42.660;23.268;2023-04-24T14:23:19;3.25;;;2.08;;
29788;SDS011;64899;42.660;23.268;2023-04-24T14:25:45;4.50;;;2.25;;
29788;SDS011;64899;42.660;23.268;2023-04-24T14:28:11;3.47;;;2.10;;
29788;SDS011;64899;42.660;23.268;2023-04-24T14:30:36;3.92;;;2.53;;
29788;SDS011;64899;42.660;23.268;2023-04-24T14:33:02;4.10;;;2.10;;
29788;SDS011;64899;42.660;23.268;2023-04-24T14:35:29;3.35;;;2.40;;
29788;SDS011;64899;42.660;23.268;2023-04-24T14:37:56;4.57;;;2.40;;
29788;SDS011;64899;42.660;23.268;2023-04-24T14:40:21;4.38;;;2.60;;